createdAt,value
2018-07-07T00:00:11.684Z,0
2018-07-07T00:00:52.261Z,0
2018-07-07T00:01:32.833Z,0
2018-07-07T00:02:13.460Z,0
2018-07-07T00:02:54.033Z,0
2018-07-07T00:03:34.597Z,0
2018-07-07T00:04:15.168Z,0
2018-07-07T00:04:55.784Z,0
2018-07-07T00:05:36.373Z,0
2018-07-07T00:06:17.199Z,0
2018-07-07T00:06:58.037Z,0
2018-07-07T00:07:38.622Z,0
2018-07-07T00:08:19.219Z,0
2018-07-07T00:08:59.782Z,0
2018-07-07T00:09:40.355Z,0
2018-07-07T00:10:20.916Z,0
2018-07-07T00:11:01.498Z,0
2018-07-07T00:11:42.058Z,0
2018-07-07T00:12:22.620Z,0
2018-07-07T00:13:03.206Z,0
2018-07-07T00:13:43.768Z,0
2018-07-07T00:14:24.320Z,0
2018-07-07T00:15:04.896Z,0
2018-07-07T00:15:45.467Z,0
2018-07-07T00:16:26.030Z,0
2018-07-07T00:17:06.600Z,0
2018-07-07T00:17:47.166Z,0
2018-07-07T00:18:27.735Z,0
2018-07-07T00:19:08.307Z,0
2018-07-07T00:19:48.876Z,0
2018-07-07T00:20:29.446Z,0
2018-07-07T00:21:10.033Z,0
2018-07-07T00:21:50.608Z,0
2018-07-07T00:22:31.176Z,0
2018-07-07T00:23:11.743Z,0
2018-07-07T00:23:52.308Z,0
2018-07-07T00:24:32.879Z,0
2018-07-07T00:25:13.447Z,0
2018-07-07T00:25:54.029Z,0
2018-07-07T00:26:34.609Z,0
2018-07-07T00:27:15.739Z,0
2018-07-07T00:27:56.280Z,0
2018-07-07T00:28:36.868Z,0
2018-07-07T00:29:17.674Z,0
2018-07-07T00:29:58.695Z,0
2018-07-07T00:30:39.358Z,0
2018-07-07T00:31:20.122Z,0
2018-07-07T00:32:00.793Z,0
2018-07-07T00:32:41.374Z,0
2018-07-07T00:33:22.151Z,0
2018-07-07T00:34:02.740Z,0
2018-07-07T00:34:43.508Z,0
2018-07-07T00:35:24.291Z,0
2018-07-07T00:36:05.078Z,0
2018-07-07T00:36:45.706Z,0
2018-07-07T00:37:26.576Z,0
2018-07-07T00:38:07.259Z,0
2018-07-07T00:38:48.042Z,0
2018-07-07T00:39:28.952Z,0
2018-07-07T00:40:09.624Z,0
2018-07-07T00:40:50.347Z,0
2018-07-07T00:41:31.539Z,0
2018-07-07T00:42:12.531Z,0
2018-07-07T00:42:53.224Z,0
2018-07-07T00:43:33.916Z,0
2018-07-07T00:44:14.641Z,0
2018-07-07T00:44:55.415Z,0
2018-07-07T00:45:36.162Z,0
2018-07-07T00:46:17.093Z,0
2018-07-07T00:46:57.832Z,0
2018-07-07T00:47:38.605Z,0
2018-07-07T00:48:19.414Z,0
2018-07-07T00:49:00.270Z,0
2018-07-07T00:49:41.477Z,0
2018-07-07T00:50:22.282Z,0
2018-07-07T00:51:02.982Z,0
2018-07-07T00:51:43.901Z,0
2018-07-07T00:52:24.681Z,0
2018-07-07T00:53:05.584Z,0
2018-07-07T00:53:46.470Z,0
2018-07-07T00:54:27.415Z,0
2018-07-07T00:55:08.022Z,0
2018-07-07T00:55:48.744Z,0
2018-07-07T00:56:29.542Z,0
2018-07-07T00:57:10.113Z,0
2018-07-07T00:57:50.623Z,0
2018-07-07T00:58:31.204Z,0
2018-07-07T00:59:11.723Z,0
2018-07-07T00:59:52.277Z,0
2018-07-07T01:00:32.837Z,0
2018-07-07T01:01:13.405Z,0
2018-07-07T01:01:53.926Z,0
2018-07-07T01:02:34.489Z,0
2018-07-07T01:03:15.052Z,0
2018-07-07T01:03:55.601Z,0
2018-07-07T01:04:36.167Z,0
2018-07-07T01:05:16.736Z,0
2018-07-07T01:05:57.307Z,0
2018-07-07T01:06:37.903Z,0
2018-07-07T01:07:18.462Z,0
2018-07-07T01:07:59.021Z,0
2018-07-07T01:08:39.576Z,0
2018-07-07T01:09:20.166Z,0
2018-07-07T01:10:00.705Z,0
2018-07-07T01:10:41.280Z,0
2018-07-07T01:11:21.890Z,0
2018-07-07T01:12:02.435Z,0
2018-07-07T01:12:43.002Z,0
2018-07-07T01:13:23.567Z,0
2018-07-07T01:14:04.135Z,0
2018-07-07T01:14:44.693Z,0
2018-07-07T01:15:25.268Z,0
2018-07-07T01:16:05.825Z,0
2018-07-07T01:16:46.384Z,0
2018-07-07T01:17:26.949Z,0
2018-07-07T01:18:07.520Z,0
2018-07-07T01:18:48.120Z,0
2018-07-07T01:19:28.676Z,0
2018-07-07T01:20:09.242Z,0
2018-07-07T01:20:49.813Z,0
2018-07-07T01:21:30.375Z,0
2018-07-07T01:22:10.938Z,0
2018-07-07T01:22:51.494Z,0
2018-07-07T01:23:32.074Z,0
2018-07-07T01:24:12.644Z,0
2018-07-07T01:24:53.210Z,0
2018-07-07T01:25:33.770Z,0
2018-07-07T01:26:14.340Z,0
2018-07-07T01:26:54.910Z,0
2018-07-07T01:27:35.474Z,0
2018-07-07T01:28:16.037Z,0
2018-07-07T01:28:56.587Z,0
2018-07-07T01:29:37.147Z,0
2018-07-07T01:30:17.709Z,0
2018-07-07T01:30:58.274Z,0
2018-07-07T01:31:38.874Z,0
2018-07-07T01:32:19.444Z,0
2018-07-07T01:32:59.995Z,0
2018-07-07T01:33:40.565Z,0
2018-07-07T01:34:21.131Z,0
2018-07-07T01:35:01.684Z,0
2018-07-07T01:35:42.257Z,0
2018-07-07T01:36:22.824Z,0
2018-07-07T01:37:03.387Z,0
2018-07-07T01:37:43.970Z,0
2018-07-07T01:38:24.502Z,0
2018-07-07T01:39:05.064Z,0
2018-07-07T01:39:45.631Z,0
2018-07-07T01:40:26.210Z,0
2018-07-07T01:41:06.778Z,0
2018-07-07T01:41:47.358Z,0
2018-07-07T01:42:27.929Z,0
2018-07-07T01:43:08.492Z,0
2018-07-07T01:43:49.055Z,0
2018-07-07T01:44:29.638Z,0
2018-07-07T01:45:10.203Z,0
2018-07-07T01:45:50.772Z,0
2018-07-07T01:46:31.324Z,0
2018-07-07T01:47:11.889Z,0
2018-07-07T01:47:52.454Z,0
2018-07-07T01:48:33.057Z,0
2018-07-07T01:49:13.586Z,0
2018-07-07T01:49:54.162Z,0
2018-07-07T01:50:34.733Z,0
2018-07-07T01:51:15.275Z,0
2018-07-07T01:51:55.833Z,0
2018-07-07T01:52:36.408Z,0
2018-07-07T01:53:16.982Z,0
2018-07-07T01:53:57.551Z,0
2018-07-07T01:54:38.123Z,0
2018-07-07T01:55:18.705Z,0
2018-07-07T01:55:59.280Z,0
2018-07-07T01:56:39.839Z,0
2018-07-07T01:57:20.398Z,0
2018-07-07T01:58:00.973Z,0
2018-07-07T01:58:41.524Z,0
2018-07-07T01:59:22.076Z,0
2018-07-07T02:00:02.642Z,0
2018-07-07T02:00:43.182Z,0
2018-07-07T02:01:23.749Z,0
2018-07-07T02:02:04.312Z,0
2018-07-07T02:02:44.873Z,0
2018-07-07T02:03:25.443Z,0
2018-07-07T02:04:06.032Z,0
2018-07-07T02:04:46.575Z,0
2018-07-07T02:05:27.138Z,0
2018-07-07T02:06:07.689Z,0
2018-07-07T02:06:48.253Z,0
2018-07-07T02:07:28.800Z,0
2018-07-07T02:08:09.367Z,0
2018-07-07T02:08:49.929Z,0
2018-07-07T02:09:30.484Z,0
2018-07-07T02:10:11.057Z,0
2018-07-07T02:10:51.633Z,0
2018-07-07T02:11:32.202Z,0
2018-07-07T02:12:12.759Z,0
2018-07-07T02:12:53.312Z,0
2018-07-07T02:13:33.866Z,0
2018-07-07T02:14:14.423Z,0
2018-07-07T02:14:54.995Z,0
2018-07-07T02:15:35.566Z,0
2018-07-07T02:16:16.129Z,0
2018-07-07T02:16:56.690Z,0
2018-07-07T02:17:37.249Z,0
2018-07-07T02:18:17.819Z,0
2018-07-07T02:18:58.369Z,0
2018-07-07T02:19:38.944Z,0
2018-07-07T02:20:19.573Z,0
2018-07-07T02:21:00.124Z,0
2018-07-07T02:21:40.677Z,0
2018-07-07T02:22:21.238Z,0
2018-07-07T02:23:01.780Z,0
2018-07-07T02:23:42.350Z,0
2018-07-07T02:24:22.921Z,0
2018-07-07T02:25:03.500Z,0
2018-07-07T02:25:44.059Z,0
2018-07-07T02:26:24.633Z,0
2018-07-07T02:27:05.221Z,0
2018-07-07T02:27:45.785Z,0
2018-07-07T02:28:26.345Z,0
2018-07-07T02:29:06.913Z,0
2018-07-07T02:29:47.476Z,0
2018-07-07T02:30:28.050Z,0
2018-07-07T02:31:08.583Z,0
2018-07-07T02:31:49.140Z,0
2018-07-07T02:32:29.725Z,0
2018-07-07T02:33:10.276Z,0
2018-07-07T02:33:50.885Z,0
2018-07-07T02:34:31.441Z,0
2018-07-07T02:35:11.994Z,0
2018-07-07T02:35:52.545Z,0
2018-07-07T02:36:33.104Z,0
2018-07-07T02:37:13.682Z,0
2018-07-07T02:37:54.243Z,0
2018-07-07T02:38:34.813Z,0
2018-07-07T02:39:15.386Z,0
2018-07-07T02:39:56.233Z,0
2018-07-07T02:40:36.863Z,0
2018-07-07T02:41:17.782Z,0
2018-07-07T02:41:58.342Z,0
2018-07-07T02:42:38.908Z,0
2018-07-07T02:43:19.487Z,0
2018-07-07T02:44:00.051Z,0
2018-07-07T02:44:40.622Z,0
2018-07-07T02:45:21.176Z,0
2018-07-07T02:46:01.726Z,0
2018-07-07T02:46:42.305Z,0
2018-07-07T02:47:22.872Z,0
2018-07-07T02:48:03.443Z,0
2018-07-07T02:48:44.016Z,0
2018-07-07T02:49:24.581Z,0
2018-07-07T02:50:05.130Z,0
2018-07-07T02:50:45.703Z,0
2018-07-07T02:51:26.275Z,0
2018-07-07T02:52:06.850Z,0
2018-07-07T02:52:47.416Z,0
2018-07-07T02:53:27.976Z,0
2018-07-07T02:54:08.545Z,0
2018-07-07T02:54:49.109Z,0
2018-07-07T02:55:29.688Z,0
2018-07-07T02:56:10.260Z,0
2018-07-07T02:56:50.822Z,0
2018-07-07T02:57:31.385Z,0
2018-07-07T02:58:11.942Z,5
2018-07-07T02:58:52.497Z,5
2018-07-07T02:59:33.062Z,5
2018-07-07T03:00:13.600Z,5
2018-07-07T03:00:54.148Z,5
2018-07-07T03:01:34.693Z,5
2018-07-07T03:02:15.244Z,5
2018-07-07T03:02:55.807Z,5
2018-07-07T03:03:36.394Z,5
2018-07-07T03:04:16.969Z,5
2018-07-07T03:04:57.525Z,5
2018-07-07T03:05:38.094Z,5
2018-07-07T03:06:18.657Z,5
2018-07-07T03:06:59.237Z,5
2018-07-07T03:07:39.792Z,5
2018-07-07T03:08:20.365Z,5
2018-07-07T03:09:00.929Z,10
2018-07-07T03:09:41.505Z,10
2018-07-07T03:10:22.084Z,10
2018-07-07T03:11:02.639Z,10
2018-07-07T03:11:43.206Z,10
2018-07-07T03:12:23.773Z,10
2018-07-07T03:13:04.343Z,10
2018-07-07T03:13:44.903Z,10
2018-07-07T03:14:25.492Z,10
2018-07-07T03:15:06.018Z,10
2018-07-07T03:15:46.578Z,10
2018-07-07T03:16:27.139Z,15
2018-07-07T03:17:07.708Z,15
2018-07-07T03:17:48.266Z,15
2018-07-07T03:18:28.973Z,15
2018-07-07T03:19:09.406Z,15
2018-07-07T03:19:49.972Z,15
2018-07-07T03:20:30.544Z,15
2018-07-07T03:21:11.102Z,15
2018-07-07T03:21:51.671Z,15
2018-07-07T03:22:32.244Z,15
2018-07-07T03:23:12.802Z,15
2018-07-07T03:23:53.361Z,20
2018-07-07T03:24:33.920Z,20
2018-07-07T03:25:14.481Z,20
2018-07-07T03:25:55.050Z,20
2018-07-07T03:26:35.622Z,20
2018-07-07T03:27:16.199Z,20
2018-07-07T03:27:56.757Z,20
2018-07-07T03:28:37.317Z,25
2018-07-07T03:29:17.866Z,25
2018-07-07T03:29:58.410Z,25
2018-07-07T03:30:38.978Z,25
2018-07-07T03:31:19.543Z,25
2018-07-07T03:32:00.094Z,25
2018-07-07T03:32:40.646Z,25
2018-07-07T03:33:21.201Z,30
2018-07-07T03:34:01.752Z,30
2018-07-07T03:34:42.317Z,30
2018-07-07T03:35:22.864Z,30
2018-07-07T03:36:03.432Z,30
2018-07-07T03:36:44.004Z,30
2018-07-07T03:37:24.572Z,30
2018-07-07T03:38:05.196Z,35
2018-07-07T03:38:45.701Z,35
2018-07-07T03:39:26.287Z,35
2018-07-07T03:40:06.856Z,35
2018-07-07T03:40:47.424Z,35
2018-07-07T03:41:27.997Z,35
2018-07-07T03:42:08.573Z,35
2018-07-07T03:42:49.108Z,35
2018-07-07T03:43:29.698Z,40
2018-07-07T03:44:10.265Z,40
2018-07-07T03:44:50.828Z,40
2018-07-07T03:45:31.391Z,40
2018-07-07T03:46:11.958Z,40
2018-07-07T03:46:52.521Z,40
2018-07-07T03:47:33.099Z,40
2018-07-07T03:48:13.662Z,40
2018-07-07T03:48:54.238Z,40
2018-07-07T03:49:34.794Z,40
2018-07-07T03:50:15.365Z,40
2018-07-07T03:50:55.922Z,45
2018-07-07T03:51:36.466Z,45
2018-07-07T03:52:17.011Z,45
2018-07-07T03:52:57.567Z,45
2018-07-07T03:53:38.134Z,45
2018-07-07T03:54:18.698Z,45
2018-07-07T03:54:59.262Z,45
2018-07-07T03:55:39.840Z,45
2018-07-07T03:56:20.402Z,45
2018-07-07T03:57:00.965Z,45
2018-07-07T03:57:41.522Z,45
2018-07-07T03:58:22.092Z,45
2018-07-07T03:59:02.663Z,45
2018-07-07T03:59:43.202Z,45
2018-07-07T04:00:23.773Z,45
2018-07-07T04:01:04.341Z,50
2018-07-07T04:01:44.911Z,50
2018-07-07T04:02:25.515Z,50
2018-07-07T04:03:06.081Z,50
2018-07-07T04:03:46.652Z,50
2018-07-07T04:04:27.220Z,50
2018-07-07T04:05:07.769Z,50
2018-07-07T04:05:48.339Z,50
2018-07-07T04:06:28.897Z,50
2018-07-07T04:07:09.482Z,50
2018-07-07T04:07:50.026Z,55
2018-07-07T04:08:30.594Z,55
2018-07-07T04:09:11.152Z,55
2018-07-07T04:09:51.720Z,55
2018-07-07T04:10:32.289Z,55
2018-07-07T04:11:12.843Z,55
2018-07-07T04:11:53.416Z,55
2018-07-07T04:12:33.990Z,55
2018-07-07T04:13:14.556Z,55
2018-07-07T04:13:55.125Z,55
2018-07-07T04:14:35.698Z,55
2018-07-07T04:15:16.270Z,60
2018-07-07T04:15:56.855Z,60
2018-07-07T04:16:37.412Z,60
2018-07-07T04:17:17.973Z,60
2018-07-07T04:17:58.540Z,60
2018-07-07T04:18:39.098Z,60
2018-07-07T04:19:19.651Z,65
2018-07-07T04:20:00.272Z,65
2018-07-07T04:20:40.775Z,65
2018-07-07T04:21:21.333Z,70
2018-07-07T04:22:01.897Z,70
2018-07-07T04:22:42.470Z,65
2018-07-07T04:23:23.052Z,65
2018-07-07T04:24:03.612Z,65
2018-07-07T04:24:44.181Z,60
2018-07-07T04:25:24.753Z,60
2018-07-07T04:26:05.323Z,65
2018-07-07T04:26:45.908Z,65
2018-07-07T04:27:26.462Z,70
2018-07-07T04:28:07.038Z,75
2018-07-07T04:28:47.652Z,70
2018-07-07T04:29:28.168Z,70
2018-07-07T04:30:08.731Z,65
2018-07-07T04:30:49.290Z,70
2018-07-07T04:31:29.868Z,65
2018-07-07T04:32:10.441Z,70
2018-07-07T04:32:50.994Z,75
2018-07-07T04:33:31.584Z,75
2018-07-07T04:34:12.119Z,75
2018-07-07T04:34:52.698Z,80
2018-07-07T04:35:33.262Z,80
2018-07-07T04:36:13.806Z,80
2018-07-07T04:36:54.378Z,85
2018-07-07T04:37:34.931Z,80
2018-07-07T04:38:15.509Z,85
2018-07-07T04:38:56.071Z,90
2018-07-07T04:39:36.623Z,100
2018-07-07T04:40:17.184Z,100
2018-07-07T04:40:57.757Z,105
2018-07-07T04:41:38.325Z,105
2018-07-07T04:42:18.912Z,105
2018-07-07T04:42:59.478Z,105
2018-07-07T04:43:40.051Z,110
2018-07-07T04:44:20.624Z,115
2018-07-07T04:45:01.189Z,115
2018-07-07T04:45:41.754Z,125
2018-07-07T04:46:22.328Z,125
2018-07-07T04:47:02.887Z,125
2018-07-07T04:47:43.457Z,125
2018-07-07T04:48:24.019Z,130
2018-07-07T04:49:04.595Z,135
2018-07-07T04:49:45.162Z,135
2018-07-07T04:50:25.723Z,130
2018-07-07T04:51:06.295Z,130
2018-07-07T04:51:46.863Z,140
2018-07-07T04:52:27.467Z,145
2018-07-07T04:53:08.056Z,155
2018-07-07T04:53:48.593Z,155
2018-07-07T04:54:29.168Z,155
2018-07-07T04:55:09.780Z,160
2018-07-07T04:55:50.334Z,160
2018-07-07T04:56:30.892Z,145
2018-07-07T04:57:11.452Z,130
2018-07-07T04:57:52.012Z,130
2018-07-07T04:58:32.577Z,135
2018-07-07T04:59:13.145Z,135
2018-07-07T04:59:53.709Z,140
2018-07-07T05:00:34.286Z,135
2018-07-07T05:01:14.860Z,130
2018-07-07T05:01:55.442Z,140
2018-07-07T05:02:35.999Z,135
2018-07-07T05:03:16.561Z,135
2018-07-07T05:03:57.122Z,130
2018-07-07T05:04:37.797Z,130
2018-07-07T05:05:18.254Z,135
2018-07-07T05:05:58.812Z,160
2018-07-07T05:06:39.394Z,170
2018-07-07T05:07:19.964Z,175
2018-07-07T05:08:00.519Z,180
2018-07-07T05:08:41.112Z,170
2018-07-07T05:09:21.686Z,160
2018-07-07T05:10:02.301Z,165
2018-07-07T05:10:42.855Z,275
2018-07-07T05:11:23.427Z,320
2018-07-07T05:12:03.990Z,260
2018-07-07T05:12:44.567Z,190
2018-07-07T05:13:25.207Z,205
2018-07-07T05:14:05.785Z,210
2018-07-07T05:14:46.373Z,175
2018-07-07T05:15:26.951Z,180
2018-07-07T05:16:07.502Z,170
2018-07-07T05:16:48.060Z,180
2018-07-07T05:17:28.623Z,175
2018-07-07T05:18:09.189Z,175
2018-07-07T05:18:49.747Z,220
2018-07-07T05:19:30.312Z,235
2018-07-07T05:20:10.881Z,230
2018-07-07T05:20:51.447Z,210
2018-07-07T05:21:32.021Z,250
2018-07-07T05:22:12.593Z,180
2018-07-07T05:22:53.174Z,230
2018-07-07T05:23:33.741Z,250
2018-07-07T05:24:14.314Z,275
2018-07-07T05:24:54.894Z,350
2018-07-07T05:25:35.456Z,200
2018-07-07T05:26:16.016Z,215
2018-07-07T05:26:56.575Z,380
2018-07-07T05:27:37.152Z,575
2018-07-07T05:28:17.708Z,550
2018-07-07T05:28:58.273Z,720
2018-07-07T05:29:38.844Z,795
2018-07-07T05:30:19.413Z,660
2018-07-07T05:30:59.971Z,1020
2018-07-07T05:31:40.572Z,630
2018-07-07T05:32:21.089Z,1175
2018-07-07T05:33:01.655Z,835
2018-07-07T05:33:42.216Z,1100
2018-07-07T05:34:22.786Z,1160
2018-07-07T05:35:03.370Z,750
2018-07-07T05:35:43.940Z,1485
2018-07-07T05:36:24.526Z,1020
2018-07-07T05:37:05.084Z,845
2018-07-07T05:37:45.650Z,1705
2018-07-07T05:38:26.212Z,310
2018-07-07T05:39:06.771Z,1580
2018-07-07T05:39:47.354Z,215
2018-07-07T05:40:27.934Z,240
2018-07-07T05:41:08.513Z,1625
2018-07-07T05:41:49.082Z,935
2018-07-07T05:42:29.672Z,555
2018-07-07T05:43:10.228Z,185
2018-07-07T05:43:50.773Z,1735
2018-07-07T05:44:31.352Z,1775
2018-07-07T05:45:11.923Z,1365
2018-07-07T05:45:52.472Z,945
2018-07-07T05:46:33.060Z,450
2018-07-07T05:47:13.639Z,230
2018-07-07T05:47:54.208Z,360
2018-07-07T05:48:34.776Z,185
2018-07-07T05:49:15.334Z,145
2018-07-07T05:49:55.926Z,220
2018-07-07T05:50:36.464Z,290
2018-07-07T05:51:17.048Z,320
2018-07-07T05:51:57.630Z,1485
2018-07-07T05:52:38.193Z,1310
2018-07-07T05:53:18.767Z,1805
2018-07-07T05:53:59.338Z,405
2018-07-07T05:54:39.904Z,1840
2018-07-07T05:55:20.473Z,1500
2018-07-07T05:56:01.043Z,1030
2018-07-07T05:56:41.632Z,1755
2018-07-07T05:57:22.217Z,1340
2018-07-07T05:58:02.777Z,1780
2018-07-07T05:58:43.339Z,310
2018-07-07T05:59:23.900Z,310
2018-07-07T06:00:04.485Z,1945
2018-07-07T06:00:45.053Z,530
2018-07-07T06:01:25.621Z,875
2018-07-07T06:02:06.190Z,255
2018-07-07T06:02:46.757Z,295
2018-07-07T06:03:27.328Z,305
2018-07-07T06:04:07.905Z,305
2018-07-07T06:04:48.467Z,700
2018-07-07T06:05:29.007Z,1700
2018-07-07T06:06:09.587Z,1730
2018-07-07T06:06:50.208Z,1820
2018-07-07T06:07:30.766Z,1915
2018-07-07T06:08:11.347Z,1785
2018-07-07T06:08:51.960Z,2060
2018-07-07T06:09:32.514Z,1200
2018-07-07T06:10:13.080Z,2065
2018-07-07T06:10:53.651Z,1885
2018-07-07T06:11:34.226Z,495
2018-07-07T06:12:14.811Z,1955
2018-07-07T06:12:55.389Z,1815
2018-07-07T06:13:35.953Z,2065
2018-07-07T06:14:16.572Z,2055
2018-07-07T06:14:57.105Z,2050
2018-07-07T06:15:37.675Z,2070
2018-07-07T06:16:18.259Z,2110
2018-07-07T06:16:58.828Z,2145
2018-07-07T06:17:39.406Z,1195
2018-07-07T06:18:19.985Z,2035
2018-07-07T06:19:00.589Z,2125
2018-07-07T06:19:41.186Z,780
2018-07-07T06:20:21.736Z,370
2018-07-07T06:21:02.318Z,2035
2018-07-07T06:21:42.874Z,1965
2018-07-07T06:22:23.481Z,2010
2018-07-07T06:23:04.056Z,2065
2018-07-07T06:23:44.606Z,2165
2018-07-07T06:24:25.207Z,2120
2018-07-07T06:25:05.851Z,1520
2018-07-07T06:25:46.413Z,1990
2018-07-07T06:26:27.070Z,2000
2018-07-07T06:27:07.581Z,2010
2018-07-07T06:27:48.381Z,580
2018-07-07T06:28:28.883Z,1950
2018-07-07T06:29:09.471Z,455
2018-07-07T06:29:50.039Z,200
2018-07-07T06:30:30.637Z,300
2018-07-07T06:31:11.213Z,2000
2018-07-07T06:31:51.795Z,1405
2018-07-07T06:32:32.365Z,1350
2018-07-07T06:33:12.932Z,2105
2018-07-07T06:33:53.509Z,2020
2018-07-07T06:34:34.084Z,2135
2018-07-07T06:35:14.665Z,2080
2018-07-07T06:35:55.243Z,2045
2018-07-07T06:36:35.851Z,2000
2018-07-07T06:37:16.439Z,1975
2018-07-07T06:37:57.005Z,1970
2018-07-07T06:38:37.558Z,2025
2018-07-07T06:39:18.120Z,2170
2018-07-07T06:39:58.675Z,2040
2018-07-07T06:40:39.237Z,1945
2018-07-07T06:41:19.810Z,360
2018-07-07T06:42:00.360Z,1355
2018-07-07T06:42:40.929Z,305
2018-07-07T06:43:21.516Z,260
2018-07-07T06:44:02.077Z,1935
2018-07-07T06:44:42.671Z,2090
2018-07-07T06:45:23.235Z,2065
2018-07-07T06:46:03.785Z,2075
2018-07-07T06:46:44.377Z,2115
2018-07-07T06:47:24.952Z,1820
2018-07-07T06:48:05.534Z,500
2018-07-07T06:48:46.465Z,550
2018-07-07T06:49:26.971Z,2145
2018-07-07T06:50:07.551Z,1410
2018-07-07T06:50:48.114Z,1915
2018-07-07T06:51:28.688Z,1570
2018-07-07T06:52:09.257Z,1065
2018-07-07T06:52:49.848Z,2205
2018-07-07T06:53:30.425Z,720
2018-07-07T06:54:11.000Z,380
2018-07-07T06:54:51.571Z,280
2018-07-07T06:55:32.134Z,1175
2018-07-07T06:56:12.714Z,2090
2018-07-07T06:56:53.276Z,2125
2018-07-07T06:57:33.853Z,2135
2018-07-07T06:58:14.434Z,2105
2018-07-07T06:58:55.001Z,1230
2018-07-07T06:59:35.577Z,345
2018-07-07T07:00:16.130Z,290
2018-07-07T07:00:56.707Z,325
2018-07-07T07:01:37.266Z,1205
2018-07-07T07:02:17.837Z,660
2018-07-07T07:02:58.423Z,340
2018-07-07T07:03:38.986Z,2015
2018-07-07T07:04:19.559Z,2005
2018-07-07T07:05:00.131Z,2090
2018-07-07T07:05:40.701Z,400
2018-07-07T07:06:21.322Z,1480
2018-07-07T07:07:01.857Z,2050
2018-07-07T07:07:42.431Z,1930
2018-07-07T07:08:23.008Z,1910
2018-07-07T07:09:03.587Z,1950
2018-07-07T07:09:44.170Z,1850
2018-07-07T07:10:24.765Z,1720
2018-07-07T07:11:05.338Z,1625
2018-07-07T07:11:45.914Z,1515
2018-07-07T07:12:26.511Z,1405
2018-07-07T07:13:07.084Z,1330
2018-07-07T07:13:47.653Z,1250
2018-07-07T07:14:28.231Z,1160
2018-07-07T07:15:08.816Z,1065
2018-07-07T07:15:49.385Z,985
2018-07-07T07:16:29.968Z,920
2018-07-07T07:17:10.541Z,905
2018-07-07T07:17:51.130Z,880
2018-07-07T07:18:31.710Z,560
2018-07-07T07:19:12.286Z,805
2018-07-07T07:19:52.887Z,755
2018-07-07T07:20:33.465Z,725
2018-07-07T07:21:14.014Z,705
2018-07-07T07:21:54.604Z,670
2018-07-07T07:22:35.168Z,675
2018-07-07T07:23:15.747Z,670
2018-07-07T07:23:56.341Z,665
2018-07-07T07:24:36.922Z,655
2018-07-07T07:25:17.485Z,630
2018-07-07T07:25:58.134Z,605
2018-07-07T07:26:38.624Z,600
2018-07-07T07:27:19.206Z,595
2018-07-07T07:27:59.794Z,585
2018-07-07T07:28:40.345Z,615
2018-07-07T07:29:20.960Z,615
2018-07-07T07:30:01.537Z,620
2018-07-07T07:30:42.118Z,625
2018-07-07T07:31:22.684Z,625
2018-07-07T07:32:03.283Z,625
2018-07-07T07:32:43.856Z,620
2018-07-07T07:33:24.446Z,585
2018-07-07T07:34:05.024Z,535
2018-07-07T07:34:45.607Z,615
2018-07-07T07:35:26.181Z,615
2018-07-07T07:36:06.757Z,590
2018-07-07T07:36:47.388Z,580
2018-07-07T07:37:27.900Z,640
2018-07-07T07:38:08.465Z,625
2018-07-07T07:38:49.039Z,665
2018-07-07T07:39:29.612Z,485
2018-07-07T07:40:10.189Z,635
2018-07-07T07:40:50.910Z,510
2018-07-07T07:41:31.398Z,440
2018-07-07T07:42:11.979Z,395
2018-07-07T07:42:52.552Z,590
2018-07-07T07:43:33.133Z,595
2018-07-07T07:44:13.722Z,425
2018-07-07T07:44:54.311Z,610
2018-07-07T07:45:34.890Z,590
2018-07-07T07:46:15.470Z,440
2018-07-07T07:46:56.035Z,485
2018-07-07T07:47:36.605Z,460
2018-07-07T07:48:17.194Z,570
2018-07-07T07:48:57.758Z,530
2018-07-07T07:49:38.337Z,430
2018-07-07T07:50:18.915Z,460
2018-07-07T07:50:59.495Z,510
2018-07-07T07:51:40.079Z,395
2018-07-07T07:52:20.665Z,345
2018-07-07T07:53:01.220Z,635
2018-07-07T07:53:41.816Z,630
2018-07-07T07:54:22.417Z,485
2018-07-07T07:55:02.980Z,440
2018-07-07T07:55:43.535Z,480
2018-07-07T07:56:24.458Z,520
2018-07-07T07:57:05.055Z,385
2018-07-07T07:57:45.627Z,405
2018-07-07T07:58:26.211Z,430
2018-07-07T07:59:06.915Z,450
2018-07-07T07:59:47.346Z,545
2018-07-07T08:00:27.931Z,515
2018-07-07T08:01:08.504Z,585
2018-07-07T08:01:49.092Z,575
2018-07-07T08:02:29.671Z,490
2018-07-07T08:03:10.252Z,500
2018-07-07T08:03:50.831Z,545
2018-07-07T08:04:31.409Z,485
2018-07-07T08:05:11.968Z,425
2018-07-07T08:05:52.564Z,380
2018-07-07T08:06:33.140Z,410
2018-07-07T08:07:13.769Z,415
2018-07-07T08:07:54.345Z,430
2018-07-07T08:08:34.911Z,395
2018-07-07T08:09:15.505Z,470
2018-07-07T08:09:56.061Z,460
2018-07-07T08:10:36.636Z,455
2018-07-07T08:11:17.207Z,455
2018-07-07T08:11:57.780Z,455
2018-07-07T08:12:38.344Z,460
2018-07-07T08:13:18.925Z,460
2018-07-07T08:13:59.547Z,440
2018-07-07T08:14:40.077Z,415
2018-07-07T08:15:20.669Z,370
2018-07-07T08:16:01.240Z,365
2018-07-07T08:16:41.811Z,320
2018-07-07T08:17:22.381Z,315
2018-07-07T08:18:02.960Z,305
2018-07-07T08:18:43.542Z,305
2018-07-07T08:19:24.118Z,310
2018-07-07T08:20:04.692Z,315
2018-07-07T08:20:45.274Z,340
2018-07-07T08:21:25.849Z,335
2018-07-07T08:22:06.432Z,345
2018-07-07T08:22:47.050Z,355
2018-07-07T08:23:27.599Z,350
2018-07-07T08:24:08.173Z,345
2018-07-07T08:24:48.775Z,360
2018-07-07T08:25:29.332Z,360
2018-07-07T08:26:09.906Z,385
2018-07-07T08:26:50.477Z,410
2018-07-07T08:27:31.038Z,405
2018-07-07T08:28:11.605Z,405
2018-07-07T08:28:52.182Z,395
2018-07-07T08:29:32.749Z,400
2018-07-07T08:30:13.321Z,450
2018-07-07T08:30:53.890Z,375
2018-07-07T08:31:34.462Z,375
2018-07-07T08:32:15.038Z,415
2018-07-07T08:32:55.603Z,325
2018-07-07T08:33:36.172Z,320
2018-07-07T08:34:16.729Z,350
2018-07-07T08:34:57.318Z,345
2018-07-07T08:35:37.893Z,365
2018-07-07T08:36:18.494Z,325
2018-07-07T08:36:59.033Z,310
2018-07-07T08:37:39.605Z,295
2018-07-07T08:38:20.194Z,325
2018-07-07T08:39:00.777Z,315
2018-07-07T08:39:41.341Z,300
2018-07-07T08:40:21.915Z,290
2018-07-07T08:41:02.537Z,290
2018-07-07T08:41:43.099Z,285
2018-07-07T08:42:23.668Z,290
2018-07-07T08:43:04.233Z,280
2018-07-07T08:43:44.796Z,285
2018-07-07T08:44:25.390Z,285
2018-07-07T08:45:05.965Z,285
2018-07-07T08:45:46.531Z,290
2018-07-07T08:46:27.088Z,290
2018-07-07T08:47:07.689Z,290
2018-07-07T08:47:48.260Z,290
2018-07-07T08:48:28.827Z,300
2018-07-07T08:49:09.389Z,285
2018-07-07T08:49:49.965Z,285
2018-07-07T08:50:30.540Z,290
2018-07-07T08:51:11.107Z,285
2018-07-07T08:51:51.668Z,275
2018-07-07T08:52:32.234Z,280
2018-07-07T08:53:12.796Z,275
2018-07-07T08:53:53.368Z,280
2018-07-07T08:54:33.988Z,295
2018-07-07T08:55:14.572Z,280
2018-07-07T08:55:55.147Z,275
2018-07-07T08:56:35.728Z,275
2018-07-07T08:57:16.288Z,260
2018-07-07T08:57:56.845Z,305
2018-07-07T08:58:37.407Z,255
2018-07-07T08:59:17.989Z,260
2018-07-07T08:59:58.559Z,255
2018-07-07T09:00:39.126Z,295
2018-07-07T09:01:19.689Z,260
2018-07-07T09:02:00.267Z,290
2018-07-07T09:02:40.833Z,280
2018-07-07T09:03:21.402Z,275
2018-07-07T09:04:01.986Z,270
2018-07-07T09:04:42.549Z,245
2018-07-07T09:05:23.116Z,255
2018-07-07T09:06:03.692Z,245
2018-07-07T09:06:44.259Z,240
2018-07-07T09:07:24.863Z,235
2018-07-07T09:08:05.427Z,225
2018-07-07T09:08:45.997Z,220
2018-07-07T09:09:26.576Z,220
2018-07-07T09:10:07.128Z,215
2018-07-07T09:10:47.706Z,215
2018-07-07T09:11:28.259Z,210
2018-07-07T09:12:08.826Z,210
2018-07-07T09:12:49.401Z,205
2018-07-07T09:13:30.011Z,205
2018-07-07T09:14:10.611Z,210
2018-07-07T09:14:51.138Z,205
2018-07-07T09:15:31.704Z,205
2018-07-07T09:16:12.322Z,205
2018-07-07T09:16:52.859Z,210
2018-07-07T09:17:33.425Z,220
2018-07-07T09:18:14.003Z,215
2018-07-07T09:18:54.724Z,210
2018-07-07T09:19:35.190Z,215
2018-07-07T09:20:15.766Z,210
2018-07-07T09:20:56.322Z,210
2018-07-07T09:21:36.899Z,210
2018-07-07T09:22:17.476Z,195
2018-07-07T09:22:58.048Z,195
2018-07-07T09:23:38.616Z,195
2018-07-07T09:24:19.199Z,205
2018-07-07T09:24:59.769Z,205
2018-07-07T09:25:40.334Z,210
2018-07-07T09:26:20.925Z,210
2018-07-07T09:27:01.514Z,215
2018-07-07T09:27:42.069Z,220
2018-07-07T09:28:22.635Z,225
2018-07-07T09:29:03.199Z,225
2018-07-07T09:29:43.769Z,225
2018-07-07T09:30:24.334Z,225
2018-07-07T09:31:04.909Z,225
2018-07-07T09:31:45.481Z,225
2018-07-07T09:32:26.101Z,230